sensor_id;sensor_type;location;lat;lon;timestamp;temperature;humidity
12229;DHT22;6177;52.402;9.800;2022-09-03T00:00:40;15.70;55.60
12229;DHT22;6177;52.402;9.800;2022-09-03T00:03:34;15.70;55.70
12229;DHT22;6177;52.402;9.800;2022-09-03T00:09:08;15.60;56.00
12229;DHT22;6177;52.402;9.800;2022-09-03T00:14:49;15.50;56.30
12229;DHT22;6177;52.402;9.800;2022-09-03T00:17:37;15.50;56.40
12229;DHT22;6177;52.402;9.800;2022-09-03T00:23:21;15.40;56.70
12229;DHT22;6177;52.402;9.800;2022-09-03T00:29:02;15.40;57.10
12229;DHT22;6177;52.402;9.800;2022-09-03T00:31:52;15.40;57.10
12229;DHT22;6177;52.402;9.800;2022-09-03T00:34:39;15.40;57.20
12229;DHT22;6177;52.402;9.800;2022-09-03T00:37:25;15.40;57.30
12229;DHT22;6177;52.402;9.800;2022-09-03T00:40:26;15.40;57.50
12229;DHT22;6177;52.402;9.800;2022-09-03T00:46:10;15.30;57.50
12229;DHT22;6177;52.402;9.800;2022-09-03T00:51:55;15.30;57.80
12229;DHT22;6177;52.402;9.800;2022-09-03T01:01:21;15.10;58.10
12229;DHT22;6177;52.402;9.800;2022-09-03T01:13:43;15.00;58.60
12229;DHT22;6177;52.402;9.800;2022-09-03T01:16:43;15.00;58.90
12229;DHT22;6177;52.402;9.800;2022-09-03T01:31:23;15.00;58.80
12229;DHT22;6177;52.402;9.800;2022-09-03T01:34:30;15.00;58.60
12229;DHT22;6177;52.402;9.800;2022-09-03T01:46:20;14.90;58.60
12229;DHT22;6177;52.402;9.800;2022-09-03T01:51:58;14.90;58.70
12229;DHT22;6177;52.402;9.800;2022-09-03T02:00:21;14.80;58.80
12229;DHT22;6177;52.402;9.800;2022-09-03T02:03:07;14.80;59.00
12229;DHT22;6177;52.402;9.800;2022-09-03T02:05:53;14.80;58.90
12229;DHT22;6177;52.402;9.800;2022-09-03T02:08:38;14.80;59.00
12229;DHT22;6177;52.402;9.800;2022-09-03T02:11:24;14.80;58.80
12229;DHT22;6177;52.402;9.800;2022-09-03T02:14:08;14.80;59.00
12229;DHT22;6177;52.402;9.800;2022-09-03T02:16:54;14.80;58.80
12229;DHT22;6177;52.402;9.800;2022-09-03T02:19:39;14.80;58.80
12229;DHT22;6177;52.402;9.800;2022-09-03T02:22:24;14.80;58.80
12229;DHT22;6177;52.402;9.800;2022-09-03T02:25:09;14.70;58.90
12229;DHT22;6177;52.402;9.800;2022-09-03T02:27:54;14.70;58.90
12229;DHT22;6177;52.402;9.800;2022-09-03T02:30:38;14.70;59.10
12229;DHT22;6177;52.402;9.800;2022-09-03T02:33:24;14.70;59.30
12229;DHT22;6177;52.402;9.800;2022-09-03T02:36:09;14.70;59.40
12229;DHT22;6177;52.402;9.800;2022-09-03T02:38:55;14.70;59.40
12229;DHT22;6177;52.402;9.800;2022-09-03T02:41:39;14.70;59.50
12229;DHT22;6177;52.402;9.800;2022-09-03T02:44:25;14.60;59.30
12229;DHT22;6177;52.402;9.800;2022-09-03T02:47:13;14.70;59.50
12229;DHT22;6177;52.402;9.800;2022-09-03T02:49:59;14.60;59.60
12229;DHT22;6177;52.402;9.800;2022-09-03T02:52:50;14.60;59.70
12229;DHT22;6177;52.402;9.800;2022-09-03T02:55:34;14.60;59.90
12229;DHT22;6177;52.402;9.800;2022-09-03T02:58:19;14.60;60.00
12229;DHT22;6177;52.402;9.800;2022-09-03T03:01:04;14.50;60.00
12229;DHT22;6177;52.402;9.800;2022-09-03T03:03:49;14.50;60.00
12229;DHT22;6177;52.402;9.800;2022-09-03T03:06:36;14.50;60.10
12229;DHT22;6177;52.402;9.800;2022-09-03T03:09:20;14.50;60.20
12229;DHT22;6177;52.402;9.800;2022-09-03T03:12:05;14.50;60.20
12229;DHT22;6177;52.402;9.800;2022-09-03T03:14:50;14.40;60.20
12229;DHT22;6177;52.402;9.800;2022-09-03T03:17:34;14.40;60.30
12229;DHT22;6177;52.402;9.800;2022-09-03T03:20:19;14.40;60.30
12229;DHT22;6177;52.402;9.800;2022-09-03T03:23:03;14.40;60.40
12229;DHT22;6177;52.402;9.800;2022-09-03T03:25:48;14.30;60.40
12229;DHT22;6177;52.402;9.800;2022-09-03T03:28:32;14.30;60.50
12229;DHT22;6177;52.402;9.800;2022-09-03T03:31:18;14.30;60.40
12229;DHT22;6177;52.402;9.800;2022-09-03T03:34:03;14.30;60.50
12229;DHT22;6177;52.402;9.800;2022-09-03T03:36:47;14.40;60.50
12229;DHT22;6177;52.402;9.800;2022-09-03T03:39:32;14.30;60.50
12229;DHT22;6177;52.402;9.800;2022-09-03T03:42:17;14.30;60.60
12229;DHT22;6177;52.402;9.800;2022-09-03T03:45:01;14.30;60.50
12229;DHT22;6177;52.402;9.800;2022-09-03T03:47:46;14.40;60.50
12229;DHT22;6177;52.402;9.800;2022-09-03T03:50:31;14.40;60.40
12229;DHT22;6177;52.402;9.800;2022-09-03T03:53:16;14.40;60.40
12229;DHT22;6177;52.402;9.800;2022-09-03T03:56:02;14.40;60.30
12229;DHT22;6177;52.402;9.800;2022-09-03T03:58:47;14.40;60.30
12229;DHT22;6177;52.402;9.800;2022-09-03T04:01:31;14.40;60.30
12229;DHT22;6177;52.402;9.800;2022-09-03T04:04:15;14.40;60.30
12229;DHT22;6177;52.402;9.800;2022-09-03T04:07:00;14.40;60.30
12229;DHT22;6177;52.402;9.800;2022-09-03T04:09:45;14.40;60.30
12229;DHT22;6177;52.402;9.800;2022-09-03T04:12:30;14.40;60.40
12229;DHT22;6177;52.402;9.800;2022-09-03T04:15:14;14.30;60.40
12229;DHT22;6177;52.402;9.800;2022-09-03T04:17:59;14.30;60.40
12229;DHT22;6177;52.402;9.800;2022-09-03T04:20:44;14.20;60.40
12229;DHT22;6177;52.402;9.800;2022-09-03T04:23:29;14.20;60.50
12229;DHT22;6177;52.402;9.800;2022-09-03T04:26:15;14.20;60.60
12229;DHT22;6177;52.402;9.800;2022-09-03T04:29:07;14.10;60.60
12229;DHT22;6177;52.402;9.800;2022-09-03T04:31:52;14.10;60.70
12229;DHT22;6177;52.402;9.800;2022-09-03T04:34:55;14.10;60.70
12229;DHT22;6177;52.402;9.800;2022-09-03T04:37:40;14.10;60.70
12229;DHT22;6177;52.402;9.800;2022-09-03T04:40:25;14.10;60.80
12229;DHT22;6177;52.402;9.800;2022-09-03T04:43:09;14.10;60.80
12229;DHT22;6177;52.402;9.800;2022-09-03T04:46:00;14.00;61.00
12229;DHT22;6177;52.402;9.800;2022-09-03T04:48:51;14.00;61.00
12229;DHT22;6177;52.402;9.800;2022-09-03T04:51:36;14.00;61.00
12229;DHT22;6177;52.402;9.800;2022-09-03T04:54:25;14.00;61.10
12229;DHT22;6177;52.402;9.800;2022-09-03T04:57:09;14.00;61.10
12229;DHT22;6177;52.402;9.800;2022-09-03T04:59:53;14.00;61.10
12229;DHT22;6177;52.402;9.800;2022-09-03T05:02:39;14.00;61.10
12229;DHT22;6177;52.402;9.800;2022-09-03T05:05:24;14.10;61.10
12229;DHT22;6177;52.402;9.800;2022-09-03T05:08:08;14.10;61.00
12229;DHT22;6177;52.402;9.800;2022-09-03T05:10:58;14.20;61.00
12229;DHT22;6177;52.402;9.800;2022-09-03T05:13:46;14.20;61.00
12229;DHT22;6177;52.402;9.800;2022-09-03T05:16:31;14.20;61.00
12229;DHT22;6177;52.402;9.800;2022-09-03T05:19:15;14.20;61.00
12229;DHT22;6177;52.402;9.800;2022-09-03T05:22:00;14.20;61.00
12229;DHT22;6177;52.402;9.800;2022-09-03T05:24:44;14.20;61.00
12229;DHT22;6177;52.402;9.800;2022-09-03T05:27:30;14.20;61.10
12229;DHT22;6177;52.402;9.800;2022-09-03T05:30:14;14.20;61.10
12229;DHT22;6177;52.402;9.800;2022-09-03T05:32:59;14.20;61.20
12229;DHT22;6177;52.402;9.800;2022-09-03T05:35:43;14.20;61.20
12229;DHT22;6177;52.402;9.800;2022-09-03T05:38:27;14.20;61.20
12229;DHT22;6177;52.402;9.800;2022-09-03T05:41:12;14.20;61.10
12229;DHT22;6177;52.402;9.800;2022-09-03T05:43:57;14.30;61.10
12229;DHT22;6177;52.402;9.800;2022-09-03T05:46:44;14.30;61.10
12229;DHT22;6177;52.402;9.800;2022-09-03T05:49:28;14.30;61.10
12229;DHT22;6177;52.402;9.800;2022-09-03T05:52:14;14.30;61.10
12229;DHT22;6177;52.402;9.800;2022-09-03T05:55:00;14.40;61.10
12229;DHT22;6177;52.402;9.800;2022-09-03T05:57:46;14.40;61.10
12229;DHT22;6177;52.402;9.800;2022-09-03T06:00:34;14.40;61.10
12229;DHT22;6177;52.402;9.800;2022-09-03T06:03:20;14.40;61.10
12229;DHT22;6177;52.402;9.800;2022-09-03T06:06:04;14.40;60.90
12229;DHT22;6177;52.402;9.800;2022-09-03T06:08:50;14.50;61.00
12229;DHT22;6177;52.402;9.800;2022-09-03T06:11:35;14.50;60.90
12229;DHT22;6177;52.402;9.800;2022-09-03T06:14:19;14.50;61.00
12229;DHT22;6177;52.402;9.800;2022-09-03T06:17:04;14.60;60.90
12229;DHT22;6177;52.402;9.800;2022-09-03T06:19:49;14.70;60.90
12229;DHT22;6177;52.402;9.800;2022-09-03T06:22:34;14.70;60.80
12229;DHT22;6177;52.402;9.800;2022-09-03T06:25:18;14.80;60.80
12229;DHT22;6177;52.402;9.800;2022-09-03T06:28:03;14.80;60.70
12229;DHT22;6177;52.402;9.800;2022-09-03T06:30:52;14.90;60.60
12229;DHT22;6177;52.402;9.800;2022-09-03T06:33:37;14.90;60.50
12229;DHT22;6177;52.402;9.800;2022-09-03T06:36:22;15.00;60.40
12229;DHT22;6177;52.402;9.800;2022-09-03T06:39:07;15.10;59.80
12229;DHT22;6177;52.402;9.800;2022-09-03T06:41:51;15.10;60.20
12229;DHT22;6177;52.402;9.800;2022-09-03T06:44:43;15.20;60.20
12229;DHT22;6177;52.402;9.800;2022-09-03T06:47:28;15.30;60.30
12229;DHT22;6177;52.402;9.800;2022-09-03T06:50:14;15.30;60.10
12229;DHT22;6177;52.402;9.800;2022-09-03T06:52:58;15.40;60.00
12229;DHT22;6177;52.402;9.800;2022-09-03T06:55:42;15.50;59.70
12229;DHT22;6177;52.402;9.800;2022-09-03T06:58:29;15.50;59.60
12229;DHT22;6177;52.402;9.800;2022-09-03T07:01:14;15.60;59.50
12229;DHT22;6177;52.402;9.800;2022-09-03T07:04:00;15.70;59.10
12229;DHT22;6177;52.402;9.800;2022-09-03T07:06:44;15.70;58.80
12229;DHT22;6177;52.402;9.800;2022-09-03T07:09:29;15.80;58.80
12229;DHT22;6177;52.402;9.800;2022-09-03T07:12:15;15.90;59.50
12229;DHT22;6177;52.402;9.800;2022-09-03T07:15:01;16.00;58.40
12229;DHT22;6177;52.402;9.800;2022-09-03T07:17:46;16.10;57.90
12229;DHT22;6177;52.402;9.800;2022-09-03T07:20:31;16.20;57.50
12229;DHT22;6177;52.402;9.800;2022-09-03T07:23:15;16.30;57.60
12229;DHT22;6177;52.402;9.800;2022-09-03T07:26:01;16.30;57.10
12229;DHT22;6177;52.402;9.800;2022-09-03T07:28:46;16.40;56.90
12229;DHT22;6177;52.402;9.800;2022-09-03T07:31:31;16.50;56.70
12229;DHT22;6177;52.402;9.800;2022-09-03T07:34:17;16.60;56.10
12229;DHT22;6177;52.402;9.800;2022-09-03T07:37:01;16.60;55.60
12229;DHT22;6177;52.402;9.800;2022-09-03T07:39:48;16.70;55.60
12229;DHT22;6177;52.402;9.800;2022-09-03T07:42:32;16.80;55.50
12229;DHT22;6177;52.402;9.800;2022-09-03T07:45:19;16.90;55.10
12229;DHT22;6177;52.402;9.800;2022-09-03T07:48:04;17.00;55.10
12229;DHT22;6177;52.402;9.800;2022-09-03T07:50:48;17.10;55.00
12229;DHT22;6177;52.402;9.800;2022-09-03T07:53:33;17.20;55.00
12229;DHT22;6177;52.402;9.800;2022-09-03T07:56:17;17.30;54.70
12229;DHT22;6177;52.402;9.800;2022-09-03T07:59:02;17.30;54.20
12229;DHT22;6177;52.402;9.800;2022-09-03T08:01:47;17.50;53.90
12229;DHT22;6177;52.402;9.800;2022-09-03T08:04:31;17.60;53.90
12229;DHT22;6177;52.402;9.800;2022-09-03T08:07:16;17.70;53.10
12229;DHT22;6177;52.402;9.800;2022-09-03T08:10:01;17.70;52.70
12229;DHT22;6177;52.402;9.800;2022-09-03T08:12:45;17.80;52.60
12229;DHT22;6177;52.402;9.800;2022-09-03T08:15:30;17.80;52.40
12229;DHT22;6177;52.402;9.800;2022-09-03T08:18:14;17.80;52.70
12229;DHT22;6177;52.402;9.800;2022-09-03T08:21:13;18.00;53.20
12229;DHT22;6177;52.402;9.800;2022-09-03T08:24:55;18.00;53.00
12229;DHT22;6177;52.402;9.800;2022-09-03T08:27:41;18.20;52.50
12229;DHT22;6177;52.402;9.800;2022-09-03T08:30:27;18.40;52.10
12229;DHT22;6177;52.402;9.800;2022-09-03T08:33:12;18.70;51.00
12229;DHT22;6177;52.402;9.800;2022-09-03T08:35:56;19.00;49.80
12229;DHT22;6177;52.402;9.800;2022-09-03T08:38:43;19.30;49.80
12229;DHT22;6177;52.402;9.800;2022-09-03T08:50:22;20.20;46.60
12229;DHT22;6177;52.402;9.800;2022-09-03T08:53:15;20.50;45.50
12229;DHT22;6177;52.402;9.800;2022-09-03T08:56:07;20.70;45.00
12229;DHT22;6177;52.402;9.800;2022-09-03T08:59:05;21.00;44.70
12229;DHT22;6177;52.402;9.800;2022-09-03T09:04:55;21.40;42.20
12229;DHT22;6177;52.402;9.800;2022-09-03T09:13:24;21.80;40.30
12229;DHT22;6177;52.402;9.800;2022-09-03T09:16:22;21.90;39.60
12229;DHT22;6177;52.402;9.800;2022-09-03T09:22:08;22.30;39.40
12229;DHT22;6177;52.402;9.800;2022-09-03T09:24:53;22.60;38.60
12229;DHT22;6177;52.402;9.800;2022-09-03T09:30:42;22.60;36.20
12229;DHT22;6177;52.402;9.800;2022-09-03T09:33:28;22.70;35.80
12229;DHT22;6177;52.402;9.800;2022-09-03T09:36:15;22.70;35.80
12229;DHT22;6177;52.402;9.800;2022-09-03T09:39:08;22.70;34.90
12229;DHT22;6177;52.402;9.800;2022-09-03T09:41:57;22.70;34.90
12229;DHT22;6177;52.402;9.800;2022-09-03T09:44:41;22.80;34.60
12229;DHT22;6177;52.402;9.800;2022-09-03T09:47:27;22.90;34.90
12229;DHT22;6177;52.402;9.800;2022-09-03T09:50:18;23.10;35.00
12229;DHT22;6177;52.402;9.800;2022-09-03T09:53:09;23.20;34.60
12229;DHT22;6177;52.402;9.800;2022-09-03T09:56:04;23.30;33.90
12229;DHT22;6177;52.402;9.800;2022-09-03T09:58:49;23.30;33.60
12229;DHT22;6177;52.402;9.800;2022-09-03T10:01:44;23.30;33.40
12229;DHT22;6177;52.402;9.800;2022-09-03T10:04:29;23.30;32.90
12229;DHT22;6177;52.402;9.800;2022-09-03T10:07:30;23.30;32.70
12229;DHT22;6177;52.402;9.800;2022-09-03T10:10:20;23.20;32.80
12229;DHT22;6177;52.402;9.800;2022-09-03T10:15:58;23.00;32.80
12229;DHT22;6177;52.402;9.800;2022-09-03T10:18:45;23.00;33.10
12229;DHT22;6177;52.402;9.800;2022-09-03T10:21:38;22.90;33.00
12229;DHT22;6177;52.402;9.800;2022-09-03T10:27:24;22.90;33.80
12229;DHT22;6177;52.402;9.800;2022-09-03T10:30:09;22.90;33.80
12229;DHT22;6177;52.402;9.800;2022-09-03T10:35:52;22.80;33.40
12229;DHT22;6177;52.402;9.800;2022-09-03T10:38:40;22.90;33.50
12229;DHT22;6177;52.402;9.800;2022-09-03T10:55:40;23.30;32.40
12229;DHT22;6177;52.402;9.800;2022-09-03T11:06:58;23.40;31.90
12229;DHT22;6177;52.402;9.800;2022-09-03T11:09:54;23.30;31.90
12229;DHT22;6177;52.402;9.800;2022-09-03T11:12:45;23.40;31.90
12229;DHT22;6177;52.402;9.800;2022-09-03T11:15:43;23.40;31.80
12229;DHT22;6177;52.402;9.800;2022-09-03T11:21:13;23.50;31.70
12229;DHT22;6177;52.402;9.800;2022-09-03T11:24:10;23.60;31.50
12229;DHT22;6177;52.402;9.800;2022-09-03T11:27:01;23.60;31.50
12229;DHT22;6177;52.402;9.800;2022-09-03T11:29:52;23.60;31.20
12229;DHT22;6177;52.402;9.800;2022-09-03T11:32:49;23.60;31.30
12229;DHT22;6177;52.402;9.800;2022-09-03T11:35:37;23.70;30.90
12229;DHT22;6177;52.402;9.800;2022-09-03T11:38:28;23.80;31.20
12229;DHT22;6177;52.402;9.800;2022-09-03T11:44:17;23.60;30.50
12229;DHT22;6177;52.402;9.800;2022-09-03T11:47:11;23.60;30.70
12229;DHT22;6177;52.402;9.800;2022-09-03T11:50:04;23.80;30.90
12229;DHT22;6177;52.402;9.800;2022-09-03T11:52:50;23.90;31.40
12229;DHT22;6177;52.402;9.800;2022-09-03T11:55:55;24.00;31.20
12229;DHT22;6177;52.402;9.800;2022-09-03T11:58:42;24.10;30.80
12229;DHT22;6177;52.402;9.800;2022-09-03T12:01:28;24.00;31.00
12229;DHT22;6177;52.402;9.800;2022-09-03T12:04:14;24.20;30.90
12229;DHT22;6177;52.402;9.800;2022-09-03T12:07:24;24.30;30.60
12229;DHT22;6177;52.402;9.800;2022-09-03T12:22:40;27.70;27.80
12229;DHT22;6177;52.402;9.800;2022-09-03T12:25:25;27.90;27.70
12229;DHT22;6177;52.402;9.800;2022-09-03T12:28:15;28.20;27.20
12229;DHT22;6177;52.402;9.800;2022-09-03T12:34:11;29.00;26.60
12229;DHT22;6177;52.402;9.800;2022-09-03T12:36:56;29.40;26.00
12229;DHT22;6177;52.402;9.800;2022-09-03T12:39:50;29.80;26.10
12229;DHT22;6177;52.402;9.800;2022-09-03T12:42:35;29.90;26.10
12229;DHT22;6177;52.402;9.800;2022-09-03T12:45:24;30.10;25.80
12229;DHT22;6177;52.402;9.800;2022-09-03T12:48:19;30.40;25.50
12229;DHT22;6177;52.402;9.800;2022-09-03T12:51:04;30.80;25.40
12229;DHT22;6177;52.402;9.800;2022-09-03T12:53:50;31.20;25.00
12229;DHT22;6177;52.402;9.800;2022-09-03T12:56:36;31.40;24.90
12229;DHT22;6177;52.402;9.800;2022-09-03T12:59:23;31.60;24.60
12229;DHT22;6177;52.402;9.800;2022-09-03T13:02:16;31.80;24.50
12229;DHT22;6177;52.402;9.800;2022-09-03T13:05:03;32.10;24.30
12229;DHT22;6177;52.402;9.800;2022-09-03T13:07:51;32.20;24.10
12229;DHT22;6177;52.402;9.800;2022-09-03T13:10:39;32.10;24.10
12229;DHT22;6177;52.402;9.800;2022-09-03T13:13:36;32.30;23.80
12229;DHT22;6177;52.402;9.800;2022-09-03T13:19:42;32.30;23.90
12229;DHT22;6177;52.402;9.800;2022-09-03T13:22:39;32.70;24.00
12229;DHT22;6177;52.402;9.800;2022-09-03T13:25:50;33.20;23.60
12229;DHT22;6177;52.402;9.800;2022-09-03T13:31:49;33.20;23.30
12229;DHT22;6177;52.402;9.800;2022-09-03T13:34:56;33.50;23.20
12229;DHT22;6177;52.402;9.800;2022-09-03T13:37:44;33.80;23.00
12229;DHT22;6177;52.402;9.800;2022-09-03T13:40:35;33.90;22.80
12229;DHT22;6177;52.402;9.800;2022-09-03T13:43:40;34.10;22.70
12229;DHT22;6177;52.402;9.800;2022-09-03T13:46:30;34.40;22.80
12229;DHT22;6177;52.402;9.800;2022-09-03T13:55:36;34.90;22.30
12229;DHT22;6177;52.402;9.800;2022-09-03T14:01:26;34.80;22.20
12229;DHT22;6177;52.402;9.800;2022-09-03T14:04:33;35.00;22.10
12229;DHT22;6177;52.402;9.800;2022-09-03T14:11:30;35.90;21.90
12229;DHT22;6177;52.402;9.800;2022-09-03T14:16:36;36.40;21.70
12229;DHT22;6177;52.402;9.800;2022-09-03T14:19:30;36.60;21.70
12229;DHT22;6177;52.402;9.800;2022-09-03T14:22:23;36.50;21.40
12229;DHT22;6177;52.402;9.800;2022-09-03T14:25:10;36.50;21.30
12229;DHT22;6177;52.402;9.800;2022-09-03T14:28:11;36.60;21.30
12229;DHT22;6177;52.402;9.800;2022-09-03T14:33:54;37.10;21.20
12229;DHT22;6177;52.402;9.800;2022-09-03T14:36:47;37.30;20.90
12229;DHT22;6177;52.402;9.800;2022-09-03T14:39:37;37.70;20.90
12229;DHT22;6177;52.402;9.800;2022-09-03T14:48:33;37.60;20.60
12229;DHT22;6177;52.402;9.800;2022-09-03T14:54:10;37.20;20.80
12229;DHT22;6177;52.402;9.800;2022-09-03T14:57:21;37.30;20.70
12229;DHT22;6177;52.402;9.800;2022-09-03T15:00:18;37.60;20.70
12229;DHT22;6177;52.402;9.800;2022-09-03T15:08:44;38.20;20.30
12229;DHT22;6177;52.402;9.800;2022-09-03T15:11:31;38.30;20.40
12229;DHT22;6177;52.402;9.800;2022-09-03T15:14:33;38.20;20.20
12229;DHT22;6177;52.402;9.800;2022-09-03T15:17:23;38.30;20.20
12229;DHT22;6177;52.402;9.800;2022-09-03T15:23:22;37.90;20.20
12229;DHT22;6177;52.402;9.800;2022-09-03T15:26:16;38.10;20.20
12229;DHT22;6177;52.402;9.800;2022-09-03T15:37:39;38.60;19.90
12229;DHT22;6177;52.402;9.800;2022-09-03T15:43:24;38.20;19.80
12229;DHT22;6177;52.402;9.800;2022-09-03T15:46:31;37.90;19.80
12229;DHT22;6177;52.402;9.800;2022-09-03T15:49:17;37.50;19.80
12229;DHT22;6177;52.402;9.800;2022-09-03T15:54:59;35.80;20.10
12229;DHT22;6177;52.402;9.800;2022-09-03T15:57:51;34.70;20.30
12229;DHT22;6177;52.402;9.800;2022-09-03T16:00:59;33.60;20.50
12229;DHT22;6177;52.402;9.800;2022-09-03T16:03:52;32.60;20.90
12229;DHT22;6177;52.402;9.800;2022-09-03T16:12:44;30.80;22.10
12229;DHT22;6177;52.402;9.800;2022-09-03T16:15:42;30.30;22.10
12229;DHT22;6177;52.402;9.800;2022-09-03T16:18:35;29.70;22.40
12229;DHT22;6177;52.402;9.800;2022-09-03T16:21:29;29.20;22.80
12229;DHT22;6177;52.402;9.800;2022-09-03T16:39:18;27.30;24.50
12229;DHT22;6177;52.402;9.800;2022-09-03T16:42:06;27.00;24.70
12229;DHT22;6177;52.402;9.800;2022-09-03T17:01:53;25.90;25.60
12229;DHT22;6177;52.402;9.800;2022-09-03T17:07:39;25.70;25.70
12229;DHT22;6177;52.402;9.800;2022-09-03T17:16:18;25.40;25.80
12229;DHT22;6177;52.402;9.800;2022-09-03T17:19:20;25.30;25.90
12229;DHT22;6177;52.402;9.800;2022-09-03T17:22:11;25.10;26.10
12229;DHT22;6177;52.402;9.800;2022-09-03T17:25:01;24.90;26.20
12229;DHT22;6177;52.402;9.800;2022-09-03T17:28:12;24.80;26.50
12229;DHT22;6177;52.402;9.800;2022-09-03T17:31:23;24.70;26.60
12229;DHT22;6177;52.402;9.800;2022-09-03T17:36:58;24.40;26.90
12229;DHT22;6177;52.402;9.800;2022-09-03T17:48:54;24.00;27.20
12229;DHT22;6177;52.402;9.800;2022-09-03T17:51:57;23.90;27.40
12229;DHT22;6177;52.402;9.800;2022-09-03T17:54:43;23.70;27.40
12229;DHT22;6177;52.402;9.800;2022-09-03T17:57:30;23.60;27.60
12229;DHT22;6177;52.402;9.800;2022-09-03T18:00:23;23.50;27.80
12229;DHT22;6177;52.402;9.800;2022-09-03T18:03:12;23.50;28.00
12229;DHT22;6177;52.402;9.800;2022-09-03T18:06:03;23.40;28.10
12229;DHT22;6177;52.402;9.800;2022-09-03T18:12:10;23.20;28.50
12229;DHT22;6177;52.402;9.800;2022-09-03T18:15:04;23.00;28.80
12229;DHT22;6177;52.402;9.800;2022-09-03T18:17:57;22.80;28.90
12229;DHT22;6177;52.402;9.800;2022-09-03T18:20:52;22.80;29.10
12229;DHT22;6177;52.402;9.800;2022-09-03T18:24:03;22.70;29.20
12229;DHT22;6177;52.402;9.800;2022-09-03T18:27:09;22.70;29.30
12229;DHT22;6177;52.402;9.800;2022-09-03T18:30:13;22.70;29.30
12229;DHT22;6177;52.402;9.800;2022-09-03T18:33:18;22.70;29.40
12229;DHT22;6177;52.402;9.800;2022-09-03T18:36:22;22.60;29.40
12229;DHT22;6177;52.402;9.800;2022-09-03T18:39:26;22.50;29.50
12229;DHT22;6177;52.402;9.800;2022-09-03T18:45:50;22.40;29.80
12229;DHT22;6177;52.402;9.800;2022-09-03T19:01:35;22.00;30.90
12229;DHT22;6177;52.402;9.800;2022-09-03T19:08:05;21.70;31.10
12229;DHT22;6177;52.402;9.800;2022-09-03T19:14:38;21.50;31.70
12229;DHT22;6177;52.402;9.800;2022-09-03T19:21:02;21.30;32.50
12229;DHT22;6177;52.402;9.800;2022-09-03T19:24:06;21.20;32.70
12229;DHT22;6177;52.402;9.800;2022-09-03T19:30:44;20.90;33.20
12229;DHT22;6177;52.402;9.800;2022-09-03T19:37:07;20.80;34.00
12229;DHT22;6177;52.402;9.800;2022-09-03T19:55:46;20.30;35.40
12229;DHT22;6177;52.402;9.800;2022-09-03T19:59:00;20.20;35.70
12229;DHT22;6177;52.402;9.800;2022-09-03T20:02:04;20.20;35.90
12229;DHT22;6177;52.402;9.800;2022-09-03T20:05:14;20.00;36.00
12229;DHT22;6177;52.402;9.800;2022-09-03T20:08:18;20.00;36.30
12229;DHT22;6177;52.402;9.800;2022-09-03T20:11:21;20.00;36.50
12229;DHT22;6177;52.402;9.800;2022-09-03T20:14:11;19.90;36.60
12229;DHT22;6177;52.402;9.800;2022-09-03T20:19:51;19.80;37.10
12229;DHT22;6177;52.402;9.800;2022-09-03T20:22:49;19.70;37.20
12229;DHT22;6177;52.402;9.800;2022-09-03T20:25:52;19.70;37.30
12229;DHT22;6177;52.402;9.800;2022-09-03T20:31:47;19.60;37.90
12229;DHT22;6177;52.402;9.800;2022-09-03T20:38:09;19.50;38.10
12229;DHT22;6177;52.402;9.800;2022-09-03T20:41:02;19.40;38.10
12229;DHT22;6177;52.402;9.800;2022-09-03T20:44:42;19.40;38.40
12229;DHT22;6177;52.402;9.800;2022-09-03T20:55:39;19.20;39.10
12229;DHT22;6177;52.402;9.800;2022-09-03T20:58:33;19.00;39.10
12229;DHT22;6177;52.402;9.800;2022-09-03T21:01:29;19.00;39.40
12229;DHT22;6177;52.402;9.800;2022-09-03T21:04:32;18.90;39.70
12229;DHT22;6177;52.402;9.800;2022-09-03T21:10:07;18.80;39.90
12229;DHT22;6177;52.402;9.800;2022-09-03T21:13:05;18.80;40.20
12229;DHT22;6177;52.402;9.800;2022-09-03T21:15:56;18.70;40.50
12229;DHT22;6177;52.402;9.800;2022-09-03T21:19:05;18.70;40.60
12229;DHT22;6177;52.402;9.800;2022-09-03T21:22:03;18.60;40.80
12229;DHT22;6177;52.402;9.800;2022-09-03T21:25:51;18.60;40.90
12229;DHT22;6177;52.402;9.800;2022-09-03T21:28:06;18.60;41.10
12229;DHT22;6177;52.402;9.800;2022-09-03T21:30:57;18.50;41.20
12229;DHT22;6177;52.402;9.800;2022-09-03T21:33:45;18.40;41.30
12229;DHT22;6177;52.402;9.800;2022-09-03T21:36:32;18.40;41.70
12229;DHT22;6177;52.402;9.800;2022-09-03T21:48:08;18.20;42.40
12229;DHT22;6177;52.402;9.800;2022-09-03T21:50:54;18.20;42.50
12229;DHT22;6177;52.402;9.800;2022-09-03T21:54:00;18.10;42.70
12229;DHT22;6177;52.402;9.800;2022-09-03T21:59:41;18.00;43.10
12229;DHT22;6177;52.402;9.800;2022-09-03T22:02:29;18.00;43.50
12229;DHT22;6177;52.402;9.800;2022-09-03T22:05:16;17.90;43.50
12229;DHT22;6177;52.402;9.800;2022-09-03T22:08:13;17.90;43.80
12229;DHT22;6177;52.402;9.800;2022-09-03T22:13:59;17.80;44.00
12229;DHT22;6177;52.402;9.800;2022-09-03T22:16:46;17.70;44.10
12229;DHT22;6177;52.402;9.800;2022-09-03T22:19:35;17.70;44.40
12229;DHT22;6177;52.402;9.800;2022-09-03T22:25:16;17.60;44.60
12229;DHT22;6177;52.402;9.800;2022-09-03T22:30:49;17.50;45.10
12229;DHT22;6177;52.402;9.800;2022-09-03T22:36:59;17.40;45.20
12229;DHT22;6177;52.402;9.800;2022-09-03T22:39:46;17.40;45.70
12229;DHT22;6177;52.402;9.800;2022-09-03T22:45:50;17.30;45.70
12229;DHT22;6177;52.402;9.800;2022-09-03T22:49:56;17.30;45.90
12229;DHT22;6177;52.402;9.800;2022-09-03T22:58:15;17.10;46.30
12229;DHT22;6177;52.402;9.800;2022-09-03T23:01:26;17.10;46.40
12229;DHT22;6177;52.402;9.800;2022-09-03T23:04:19;17.00;46.70
12229;DHT22;6177;52.402;9.800;2022-09-03T23:10:14;17.00;46.80
12229;DHT22;6177;52.402;9.800;2022-09-03T23:13:14;16.90;47.20
12229;DHT22;6177;52.402;9.800;2022-09-03T23:16:15;16.90;47.20
12229;DHT22;6177;52.402;9.800;2022-09-03T23:19:12;16.80;47.40
12229;DHT22;6177;52.402;9.800;2022-09-03T23:22:00;16.80;47.80
12229;DHT22;6177;52.402;9.800;2022-09-03T23:25:04;16.80;48.00
12229;DHT22;6177;52.402;9.800;2022-09-03T23:28:02;16.70;48.20
12229;DHT22;6177;52.402;9.800;2022-09-03T23:31:03;16.70;48.50
12229;DHT22;6177;52.402;9.800;2022-09-03T23:33:51;16.60;48.70
12229;DHT22;6177;52.402;9.800;2022-09-03T23:49:42;16.40;49.60
